createdAt,value
2023-01-29T00:02:00.449Z,2.74
2023-01-29T00:04:27.267Z,2.77
2023-01-29T00:06:53.961Z,2.68
2023-01-29T00:09:20.663Z,2.84
2023-01-29T00:11:47.585Z,2.91
2023-01-29T00:14:14.296Z,2.84
2023-01-29T00:16:40.988Z,2.85
2023-01-29T00:19:07.741Z,2.68
2023-01-29T00:21:34.719Z,2.45
2023-01-29T00:24:01.443Z,2.42
2023-01-29T00:26:28.540Z,2.36
2023-01-29T00:28:57.214Z,2.51
2023-01-29T00:31:25.494Z,2.53
2023-01-29T00:33:52.438Z,2.47
2023-01-29T00:36:20.901Z,2.48
2023-01-29T00:38:54.906Z,2.50
2023-01-29T00:41:40.754Z,2.52
2023-01-29T00:44:26.154Z,2.63
2023-01-29T00:46:52.951Z,2.41
2023-01-29T00:49:19.710Z,2.21
2023-01-29T00:52:06.617Z,2.14
2023-01-29T00:54:33.366Z,2.22
2023-01-29T00:57:00.528Z,2.48
2023-01-29T00:59:27.229Z,2.55
2023-01-29T01:02:12.697Z,2.25
2023-01-29T01:04:39.411Z,2.07
2023-01-29T01:07:06.660Z,2.31
2023-01-29T01:10:14.595Z,2.39
2023-01-29T01:12:41.450Z,2.36
2023-01-29T01:15:08.916Z,2.60
2023-01-29T01:17:36.110Z,2.59
2023-01-29T01:20:03.602Z,2.62
2023-01-29T01:22:31.301Z,2.55
2023-01-29T01:24:58.109Z,2.61
2023-01-29T01:27:25.759Z,2.55
2023-01-29T01:29:52.469Z,2.58
2023-01-29T01:32:19.243Z,2.69
2023-01-29T01:34:45.956Z,2.77
2023-01-29T01:37:12.659Z,2.83
2023-01-29T01:39:39.346Z,2.95
2023-01-29T01:42:12.147Z,3.05
2023-01-29T01:44:56.319Z,3.08
2023-01-29T01:47:30.396Z,2.77
2023-01-29T01:50:12.415Z,2.53
2023-01-29T01:52:44.812Z,2.52
2023-01-29T01:55:16.085Z,2.42
2023-01-29T01:57:45.494Z,2.48
2023-01-29T02:00:16.250Z,2.42
2023-01-29T02:03:04.532Z,2.21
2023-01-29T02:05:53.075Z,2.01
2023-01-29T02:08:56.044Z,1.76
2023-01-29T02:11:23.209Z,1.69
2023-01-29T02:13:53.827Z,1.77
2023-01-29T02:16:22.395Z,1.69
2023-01-29T02:18:50.172Z,1.61
2023-01-29T02:21:44.764Z,1.72
2023-01-29T02:24:20.733Z,1.62
2023-01-29T02:26:53.854Z,1.45
2023-01-29T02:29:48.888Z,1.53
2023-01-29T02:32:40.983Z,1.37
2023-01-29T02:35:30.116Z,1.50
2023-01-29T02:38:05.945Z,1.57
2023-01-29T02:40:54.867Z,1.54
2023-01-29T02:43:42.224Z,1.50
2023-01-29T02:46:17.484Z,1.57
2023-01-29T02:48:54.575Z,1.51
2023-01-29T02:51:30.004Z,1.58
2023-01-29T02:54:21.312Z,1.43
2023-01-29T02:57:10.652Z,1.49
2023-01-29T02:59:44.429Z,1.47
2023-01-29T03:02:17.114Z,1.48
2023-01-29T03:04:49.082Z,1.36
2023-01-29T03:07:46.020Z,1.33
2023-01-29T03:10:38.842Z,1.37
2023-01-29T03:13:34.867Z,1.30
2023-01-29T03:16:07.942Z,1.22
2023-01-29T03:18:45.945Z,1.14
2023-01-29T03:21:37.534Z,0.89
2023-01-29T03:24:25.104Z,1.06
2023-01-29T03:27:11.609Z,1.04
2023-01-29T03:29:58.927Z,1.08
2023-01-29T03:32:28.998Z,0.97
2023-01-29T03:35:00.911Z,0.98
2023-01-29T03:37:36.662Z,1.13
2023-01-29T03:40:05.433Z,1.17
2023-01-29T03:42:59.669Z,1.18
2023-01-29T03:45:42.892Z,1.24
2023-01-29T03:48:24.738Z,1.20
2023-01-29T03:51:12.155Z,1.18
2023-01-29T03:53:49.836Z,1.29
2023-01-29T03:56:33.230Z,1.32
2023-01-29T03:59:15.361Z,1.33
2023-01-29T04:01:41.991Z,1.37
2023-01-29T04:04:21.479Z,1.41
2023-01-29T04:06:50.425Z,1.34
2023-01-29T04:09:42.621Z,1.31
2023-01-29T04:12:12.518Z,1.20
2023-01-29T04:14:39.628Z,1.38
2023-01-29T04:17:15.087Z,1.32
2023-01-29T04:19:41.848Z,1.29
2023-01-29T04:22:22.026Z,1.18
2023-01-29T04:24:49.402Z,1.23
2023-01-29T04:27:27.008Z,1.28
2023-01-29T04:30:02.825Z,1.40
2023-01-29T04:32:42.377Z,1.14
2023-01-29T04:35:30.441Z,1.25
2023-01-29T04:38:17.651Z,1.11
2023-01-29T04:41:08.465Z,1.12
2023-01-29T04:43:43.959Z,1.03
2023-01-29T04:46:19.256Z,1.14
2023-01-29T04:49:01.460Z,1.03
2023-01-29T04:51:39.953Z,1.05
2023-01-29T04:54:18.440Z,1.02
2023-01-29T04:57:16.456Z,1.12
2023-01-29T04:59:48.374Z,1.16
2023-01-29T05:02:15.089Z,1.13
2023-01-29T05:04:44.787Z,1.16
2023-01-29T05:07:15.079Z,1.15
2023-01-29T05:09:45.181Z,1.06
2023-01-29T05:12:14.320Z,1.08
2023-01-29T05:14:44.721Z,1.05
2023-01-29T05:17:20.377Z,1.15
2023-01-29T05:19:47.643Z,1.25
2023-01-29T05:22:18.756Z,1.24
2023-01-29T05:24:46.659Z,1.09
2023-01-29T05:27:38.032Z,1.18
2023-01-29T05:30:05.918Z,1.25
2023-01-29T05:32:33.027Z,1.03
2023-01-29T05:34:59.789Z,0.86
2023-01-29T05:37:26.504Z,0.85
2023-01-29T05:39:53.183Z,0.98
2023-01-29T05:42:20.003Z,0.96
2023-01-29T05:44:46.700Z,1.03
2023-01-29T05:47:13.593Z,1.05
2023-01-29T05:49:40.236Z,0.96
2023-01-29T05:52:07.015Z,0.89
2023-01-29T05:54:33.614Z,0.79
2023-01-29T05:57:00.313Z,0.79
2023-01-29T05:59:26.977Z,0.75
2023-01-29T06:01:53.710Z,0.71
2023-01-29T06:04:20.396Z,0.84
2023-01-29T06:06:47.149Z,1.04
2023-01-29T06:09:13.923Z,0.98
2023-01-29T06:11:40.934Z,0.86
2023-01-29T06:14:07.581Z,0.94
2023-01-29T06:16:34.298Z,0.98
2023-01-29T06:19:01.046Z,1.08
2023-01-29T06:21:27.754Z,1.03
2023-01-29T06:23:54.509Z,1.03
2023-01-29T06:26:21.589Z,1.18
2023-01-29T06:28:51.366Z,1.19
2023-01-29T06:31:37.979Z,1.08
2023-01-29T06:34:06.615Z,1.03
2023-01-29T06:36:33.429Z,1.13
2023-01-29T06:39:00.150Z,1.16
2023-01-29T06:41:26.911Z,1.20
2023-01-29T06:43:53.573Z,1.23
2023-01-29T06:46:20.495Z,1.14
2023-01-29T06:48:47.257Z,1.34
2023-01-29T06:51:13.948Z,1.41
2023-01-29T06:53:40.964Z,1.26
2023-01-29T06:56:08.048Z,1.27
2023-01-29T06:58:38.257Z,1.46
2023-01-29T07:01:10.498Z,1.50
2023-01-29T07:03:37.833Z,1.15
2023-01-29T07:06:05.518Z,1.47
2023-01-29T07:08:32.201Z,1.56
2023-01-29T07:11:00.680Z,1.68
2023-01-29T07:13:27.575Z,1.70
2023-01-29T07:15:54.316Z,1.65
2023-01-29T07:18:20.989Z,1.56
2023-01-29T07:20:47.639Z,1.48
2023-01-29T07:23:14.395Z,1.39
2023-01-29T07:25:41.555Z,1.43
2023-01-29T07:28:08.398Z,1.48
2023-01-29T07:30:35.770Z,1.46
2023-01-29T07:33:08.265Z,1.48
2023-01-29T07:35:39.563Z,1.59
2023-01-29T07:38:07.657Z,1.75
2023-01-29T07:40:34.732Z,1.91
2023-01-29T07:43:03.999Z,1.93
2023-01-29T07:45:31.586Z,1.73
2023-01-29T07:47:58.316Z,1.73
2023-01-29T07:50:26.820Z,1.76
2023-01-29T07:52:57.060Z,1.83
2023-01-29T07:55:23.990Z,1.80
2023-01-29T07:57:58.620Z,1.75
2023-01-29T08:00:25.493Z,1.73
2023-01-29T08:02:52.597Z,1.76
2023-01-29T08:05:19.410Z,1.94
2023-01-29T08:07:54.153Z,1.66
2023-01-29T08:10:28.507Z,1.73
2023-01-29T08:13:00.122Z,1.91
2023-01-29T08:15:27.456Z,1.93
2023-01-29T08:17:57.953Z,1.93
2023-01-29T08:20:25.497Z,1.97
2023-01-29T08:23:02.394Z,1.88
2023-01-29T08:25:29.852Z,1.95
2023-01-29T08:27:58.043Z,1.94
2023-01-29T08:30:31.311Z,2.02
2023-01-29T08:32:58.421Z,2.04
2023-01-29T08:35:25.702Z,1.95
2023-01-29T08:37:59.362Z,1.73
2023-01-29T08:40:31.687Z,1.85
2023-01-29T08:43:08.718Z,1.87
2023-01-29T08:45:39.098Z,1.91
2023-01-29T08:48:06.085Z,1.66
2023-01-29T08:50:34.947Z,1.78
2023-01-29T08:53:03.781Z,1.77
2023-01-29T08:55:30.509Z,1.76
2023-01-29T08:57:59.969Z,1.78
2023-01-29T09:00:26.792Z,1.89
2023-01-29T09:02:53.564Z,1.94
2023-01-29T09:05:20.573Z,1.81
2023-01-29T09:07:47.353Z,1.88
2023-01-29T09:10:14.106Z,1.93
2023-01-29T09:12:40.779Z,1.91
2023-01-29T09:15:08.034Z,2.05
2023-01-29T09:17:34.811Z,2.09
2023-01-29T09:20:01.499Z,2.11
2023-01-29T09:22:28.750Z,2.14
2023-01-29T09:24:55.505Z,2.03
2023-01-29T09:27:22.191Z,2.06
2023-01-29T09:29:48.897Z,2.08
2023-01-29T09:32:19.576Z,2.11
2023-01-29T09:34:49.868Z,2.27
2023-01-29T09:37:17.859Z,2.34
2023-01-29T09:39:44.617Z,2.48
2023-01-29T09:42:23.262Z,2.37
2023-01-29T09:45:05.335Z,2.29
2023-01-29T09:47:34.955Z,2.41
2023-01-29T09:50:28.455Z,2.38
2023-01-29T09:53:22.377Z,2.29
2023-01-29T09:56:28.807Z,2.29
2023-01-29T09:59:00.639Z,2.44
2023-01-29T10:01:53.028Z,2.33
2023-01-29T10:05:10.884Z,2.39
2023-01-29T10:07:56.644Z,2.27
2023-01-29T10:10:41.913Z,2.29
2023-01-29T10:13:39.797Z,2.05
2023-01-29T10:16:44.447Z,2.21
2023-01-29T10:19:45.684Z,2.11
2023-01-29T10:22:33.705Z,2.04
2023-01-29T10:25:06.945Z,2.20
2023-01-29T10:27:38.570Z,2.43
2023-01-29T10:30:21.301Z,2.60
2023-01-29T10:32:49.491Z,2.77
2023-01-29T10:35:24.516Z,2.73
2023-01-29T10:37:54.593Z,2.51
2023-01-29T10:40:35.526Z,2.37
2023-01-29T10:43:08.858Z,2.69
2023-01-29T10:46:20.570Z,2.85
2023-01-29T10:49:05.759Z,2.70
2023-01-29T10:51:38.249Z,2.65
2023-01-29T10:54:22.861Z,2.58
2023-01-29T10:57:02.294Z,2.65
2023-01-29T10:59:56.335Z,2.83
2023-01-29T11:02:23.054Z,2.87
2023-01-29T11:04:49.817Z,2.87
2023-01-29T11:07:19.715Z,2.90
2023-01-29T11:09:57.706Z,3.01
2023-01-29T11:12:30.837Z,3.03
2023-01-29T11:15:06.565Z,3.11
2023-01-29T11:17:33.452Z,3.19
2023-01-29T11:20:00.267Z,3.06
2023-01-29T11:22:30.880Z,3.05
2023-01-29T11:25:20.293Z,3.18
2023-01-29T11:27:52.282Z,3.24
2023-01-29T11:30:35.952Z,3.23
2023-01-29T11:33:05.680Z,3.23
2023-01-29T11:35:33.382Z,3.20
2023-01-29T11:38:22.963Z,3.08
2023-01-29T11:40:49.944Z,3.08
2023-01-29T11:43:29.999Z,2.99
2023-01-29T11:46:03.615Z,2.96
2023-01-29T11:48:40.959Z,2.90
2023-01-29T11:51:10.294Z,2.95
2023-01-29T11:53:44.939Z,3.05
2023-01-29T11:56:22.657Z,3.01
2023-01-29T11:58:52.850Z,3.20
2023-01-29T12:01:34.811Z,3.23
2023-01-29T12:04:02.728Z,3.13
2023-01-29T12:06:44.459Z,3.04
2023-01-29T12:09:17.422Z,2.89
2023-01-29T12:11:44.391Z,2.98
2023-01-29T12:14:34.312Z,3.10
2023-01-29T12:17:12.092Z,3.05
2023-01-29T12:19:43.847Z,3.08
2023-01-29T12:22:47.082Z,3.27
2023-01-29T12:25:21.243Z,3.19
2023-01-29T12:28:09.548Z,3.31
2023-01-29T12:31:24.249Z,3.58
2023-01-29T12:34:18.815Z,3.50
2023-01-29T12:36:55.481Z,3.61
2023-01-29T12:39:22.751Z,3.72
2023-01-29T12:42:05.345Z,3.51
2023-01-29T12:44:37.071Z,3.42
2023-01-29T12:47:07.513Z,3.24
2023-01-29T12:49:38.253Z,3.38
2023-01-29T12:52:11.767Z,3.39
2023-01-29T12:54:43.240Z,3.25
2023-01-29T12:57:21.734Z,3.52
2023-01-29T13:00:12.374Z,3.58
2023-01-29T13:03:08.695Z,3.60
2023-01-29T13:05:48.789Z,3.45
2023-01-29T13:08:27.854Z,3.51
2023-01-29T13:10:57.127Z,3.55
2023-01-29T13:13:45.317Z,3.43
2023-01-29T13:16:15.880Z,3.50
2023-01-29T13:19:03.656Z,3.46
2023-01-29T13:21:36.548Z,3.43
2023-01-29T13:24:09.989Z,3.50
2023-01-29T13:26:37.635Z,3.37
2023-01-29T13:29:05.621Z,3.08
2023-01-29T13:31:38.140Z,2.90
2023-01-29T13:34:12.835Z,2.88
2023-01-29T13:36:54.506Z,2.99
2023-01-29T13:39:28.725Z,2.89
2023-01-29T13:41:57.141Z,2.83
2023-01-29T13:44:35.029Z,2.78
2023-01-29T13:47:08.782Z,2.83
2023-01-29T13:49:57.523Z,2.77
2023-01-29T13:52:54.605Z,2.62
2023-01-29T13:55:32.108Z,2.46
2023-01-29T13:58:03.891Z,2.31
2023-01-29T14:00:33.623Z,2.34
2023-01-29T14:03:00.311Z,2.40
2023-01-29T14:05:30.214Z,2.50
2023-01-29T14:07:59.283Z,2.44
2023-01-29T14:10:28.774Z,2.35
2023-01-29T14:13:15.767Z,2.45
2023-01-29T14:15:42.606Z,2.32
2023-01-29T14:18:09.379Z,2.43
2023-01-29T14:20:45.633Z,2.38
2023-01-29T14:23:46.828Z,2.23
2023-01-29T14:26:33.769Z,2.24
2023-01-29T14:29:14.463Z,2.36
2023-01-29T14:31:52.287Z,2.32
2023-01-29T14:34:33.216Z,2.41
2023-01-29T14:37:31.362Z,2.29
2023-01-29T14:40:14.050Z,2.37
2023-01-29T14:43:04.328Z,2.54
2023-01-29T14:45:44.760Z,2.32
2023-01-29T14:48:11.680Z,2.26
2023-01-29T14:50:42.666Z,2.19
2023-01-29T14:53:21.590Z,2.21
2023-01-29T14:56:16.063Z,2.15
2023-01-29T14:58:49.226Z,2.13
2023-01-29T15:01:25.942Z,2.13
2023-01-29T15:03:58.664Z,2.17
2023-01-29T15:06:47.237Z,2.12
2023-01-29T15:09:36.552Z,2.02
2023-01-29T15:12:10.950Z,2.05
2023-01-29T15:14:44.640Z,1.88
2023-01-29T15:17:29.782Z,2.14
2023-01-29T15:19:57.807Z,2.10
2023-01-29T15:22:26.165Z,2.25
2023-01-29T15:25:04.419Z,2.17
2023-01-29T15:27:31.293Z,2.12
2023-01-29T15:30:02.545Z,2.17
2023-01-29T15:32:39.495Z,1.94
2023-01-29T15:35:10.867Z,2.09
2023-01-29T15:37:38.177Z,2.01
2023-01-29T15:40:12.380Z,2.10
2023-01-29T15:42:46.708Z,2.08
2023-01-29T15:45:31.560Z,2.12
2023-01-29T15:48:06.734Z,2.19
2023-01-29T15:50:36.705Z,1.98
2023-01-29T15:53:08.111Z,2.09
2023-01-29T15:55:35.955Z,2.31
2023-01-29T15:58:02.981Z,2.22
2023-01-29T16:00:30.574Z,2.32
2023-01-29T16:02:59.187Z,2.14
2023-01-29T16:05:30.785Z,2.28
2023-01-29T16:07:58.006Z,2.39
2023-01-29T16:10:28.285Z,2.28
2023-01-29T16:12:56.244Z,2.22
2023-01-29T16:15:38.081Z,2.37
2023-01-29T16:18:21.371Z,2.43
2023-01-29T16:20:53.250Z,2.32
2023-01-29T16:23:27.786Z,2.22
2023-01-29T16:26:01.506Z,2.39
2023-01-29T16:28:28.824Z,2.34
2023-01-29T16:30:58.508Z,2.13
2023-01-29T16:33:36.428Z,1.98
2023-01-29T16:36:11.686Z,2.17
2023-01-29T16:38:43.251Z,2.34
2023-01-29T16:41:27.830Z,2.40
2023-01-29T16:44:23.657Z,2.45
2023-01-29T16:46:53.085Z,2.39
2023-01-29T16:49:28.675Z,2.26
2023-01-29T16:51:58.690Z,2.20
2023-01-29T16:54:27.615Z,2.27
2023-01-29T16:57:02.312Z,2.28
2023-01-29T16:59:36.595Z,2.53
2023-01-29T17:02:04.700Z,2.39
2023-01-29T17:04:31.470Z,2.25
2023-01-29T17:07:02.073Z,2.36
2023-01-29T17:09:32.840Z,2.55
2023-01-29T17:12:08.700Z,2.38
2023-01-29T17:14:38.794Z,2.47
2023-01-29T17:17:14.393Z,2.26
2023-01-29T17:19:41.101Z,2.25
2023-01-29T17:22:15.084Z,2.41
2023-01-29T17:24:42.501Z,2.39
2023-01-29T17:27:19.532Z,2.09
2023-01-29T17:29:46.403Z,2.09
2023-01-29T17:32:13.209Z,2.05
2023-01-29T17:34:39.950Z,2.20
2023-01-29T17:37:09.161Z,1.96
2023-01-29T17:39:36.934Z,2.13
2023-01-29T17:42:03.881Z,2.08
2023-01-29T17:44:30.648Z,2.12
2023-01-29T17:46:57.778Z,2.29
2023-01-29T17:49:27.741Z,2.48
2023-01-29T17:51:56.974Z,2.35
2023-01-29T17:54:25.739Z,2.24
2023-01-29T17:56:53.981Z,2.28
2023-01-29T17:59:23.129Z,2.38
2023-01-29T18:01:51.279Z,2.31
2023-01-29T18:04:18.321Z,2.37
2023-01-29T18:06:48.335Z,2.52
2023-01-29T18:09:20.363Z,2.46
2023-01-29T18:11:48.296Z,2.32
2023-01-29T18:14:16.193Z,2.39
2023-01-29T18:16:45.907Z,2.51
2023-01-29T18:19:15.740Z,2.39
2023-01-29T18:21:42.514Z,2.35
2023-01-29T18:24:09.278Z,2.36
2023-01-29T18:26:36.243Z,2.65
2023-01-29T18:29:03.954Z,2.60
2023-01-29T18:31:30.815Z,2.52
2023-01-29T18:33:57.877Z,2.67
2023-01-29T18:36:24.640Z,2.51
2023-01-29T18:38:51.318Z,2.40
2023-01-29T18:41:18.330Z,2.40
2023-01-29T18:43:45.206Z,1.94
2023-01-29T18:46:12.304Z,2.09
2023-01-29T18:48:41.682Z,2.14
2023-01-29T18:51:09.633Z,2.20
2023-01-29T18:53:36.398Z,2.19
2023-01-29T18:56:05.538Z,2.26
2023-01-29T18:58:35.615Z,2.08
2023-01-29T19:01:09.101Z,2.11
2023-01-29T19:03:36.506Z,2.11
2023-01-29T19:06:05.488Z,2.03
2023-01-29T19:08:32.892Z,2.03
2023-01-29T19:11:02.544Z,2.21
2023-01-29T19:13:30.809Z,2.17
2023-01-29T19:15:57.932Z,2.25
2023-01-29T19:18:26.386Z,2.17
2023-01-29T19:20:53.518Z,1.98
2023-01-29T19:23:21.445Z,2.12
2023-01-29T19:25:48.429Z,2.12
2023-01-29T19:28:15.343Z,2.00
2023-01-29T19:30:42.509Z,2.25
2023-01-29T19:33:10.278Z,2.31
2023-01-29T19:35:37.546Z,2.37
2023-01-29T19:38:05.424Z,2.45
2023-01-29T19:40:32.540Z,2.32
2023-01-29T19:43:00.129Z,2.58
2023-01-29T19:45:49.224Z,2.52
2023-01-29T19:48:20.352Z,2.63
2023-01-29T19:50:58.421Z,2.88
2023-01-29T19:53:27.327Z,2.75
2023-01-29T19:56:09.064Z,2.53
2023-01-29T19:58:36.226Z,2.39
2023-01-29T20:01:06.502Z,2.66
2023-01-29T20:03:34.236Z,2.64
2023-01-29T20:06:06.300Z,2.49
2023-01-29T20:08:33.774Z,2.24
2023-01-29T20:11:01.899Z,2.18
2023-01-29T20:13:28.639Z,2.01
2023-01-29T20:15:56.080Z,1.99
2023-01-29T20:18:23.144Z,2.27
2023-01-29T20:20:50.820Z,2.11
2023-01-29T20:23:31.865Z,2.02
2023-01-29T20:26:04.386Z,1.81
2023-01-29T20:28:31.126Z,1.89
2023-01-29T20:30:59.145Z,1.88
2023-01-29T20:33:26.725Z,1.82
2023-01-29T20:35:58.006Z,1.83
2023-01-29T20:38:30.453Z,1.99
2023-01-29T20:41:05.660Z,1.80
2023-01-29T20:43:33.081Z,1.81
2023-01-29T20:46:01.138Z,1.72
2023-01-29T20:48:29.284Z,1.67
2023-01-29T20:50:56.015Z,1.82
2023-01-29T20:53:22.984Z,1.90
2023-01-29T20:55:50.054Z,1.90
2023-01-29T20:58:17.063Z,2.06
2023-01-29T21:00:44.586Z,2.45
2023-01-29T21:03:11.236Z,2.56
2023-01-29T21:05:37.910Z,2.50
2023-01-29T21:08:04.977Z,2.64
2023-01-29T21:10:31.746Z,2.52
2023-01-29T21:12:58.460Z,2.65
2023-01-29T21:15:27.401Z,2.80
2023-01-29T21:17:54.545Z,2.51
2023-01-29T21:20:21.281Z,2.48
2023-01-29T21:22:49.194Z,2.57
2023-01-29T21:25:19.243Z,2.46
2023-01-29T21:27:45.975Z,2.54
2023-01-29T21:30:12.832Z,2.62
2023-01-29T21:32:39.540Z,2.47
2023-01-29T21:35:08.041Z,2.34
2023-01-29T21:37:37.906Z,2.22
2023-01-29T21:40:06.740Z,2.05
2023-01-29T21:42:52.030Z,1.94
2023-01-29T21:45:18.815Z,1.97
2023-01-29T21:47:48.339Z,1.93
2023-01-29T21:50:15.632Z,1.91
2023-01-29T21:52:42.782Z,1.89
2023-01-29T21:55:09.711Z,2.01
2023-01-29T21:57:36.652Z,1.84
2023-01-29T22:00:04.156Z,1.93
2023-01-29T22:02:32.235Z,1.86
2023-01-29T22:05:17.261Z,1.73
2023-01-29T22:07:45.462Z,1.82
2023-01-29T22:10:12.644Z,1.83
2023-01-29T22:12:40.023Z,1.91
2023-01-29T22:15:07.892Z,2.03
2023-01-29T22:17:35.416Z,1.73
2023-01-29T22:20:02.396Z,1.87
2023-01-29T22:22:29.068Z,2.08
2023-01-29T22:24:57.776Z,1.80
2023-01-29T22:27:24.739Z,1.84
2023-01-29T22:29:51.543Z,1.93
2023-01-29T22:32:18.370Z,2.15
2023-01-29T22:34:45.061Z,2.13
2023-01-29T22:37:11.851Z,1.83
2023-01-29T22:39:38.480Z,1.84
2023-01-29T22:42:05.519Z,1.83
2023-01-29T22:44:32.138Z,1.55
2023-01-29T22:46:58.854Z,1.65
2023-01-29T22:49:25.855Z,1.65
2023-01-29T22:52:10.129Z,1.88
2023-01-29T22:54:41.823Z,1.84
2023-01-29T22:57:11.677Z,1.74
2023-01-29T22:59:38.442Z,1.68
2023-01-29T23:02:05.864Z,1.90
2023-01-29T23:04:32.677Z,1.78
2023-01-29T23:06:59.446Z,1.78
2023-01-29T23:09:26.167Z,1.71
2023-01-29T23:11:52.868Z,1.71
2023-01-29T23:14:19.583Z,1.81
2023-01-29T23:16:46.229Z,1.79
2023-01-29T23:19:13.040Z,1.90
2023-01-29T23:21:39.849Z,1.89
2023-01-29T23:24:08.332Z,1.91
2023-01-29T23:26:53.471Z,1.76
2023-01-29T23:29:20.464Z,1.52
2023-01-29T23:31:47.232Z,1.48
2023-01-29T23:34:14.393Z,1.49
2023-01-29T23:36:41.354Z,1.49
2023-01-29T23:39:08.136Z,1.46
2023-01-29T23:41:34.984Z,1.52
2023-01-29T23:44:01.629Z,1.50
2023-01-29T23:46:28.359Z,1.40
2023-01-29T23:48:55.087Z,1.40
2023-01-29T23:51:21.741Z,1.49
2023-01-29T23:53:48.401Z,1.51
2023-01-29T23:56:15.150Z,1.52
2023-01-29T23:58:41.840Z,1.76
